createdAt,value
2024-02-24T00:01:35.383Z,100.00
2024-02-24T00:04:48.627Z,100.00
2024-02-24T00:07:54.509Z,100.00
2024-02-24T00:11:01.893Z,100.00
2024-02-24T00:14:23.741Z,100.00
2024-02-24T00:17:30.862Z,100.00
2024-02-24T00:20:37.720Z,100.00
2024-02-24T00:23:42.581Z,100.00
2024-02-24T00:26:49.777Z,100.00
2024-02-24T00:29:53.421Z,100.00
2024-02-24T00:32:59.351Z,100.00
2024-02-24T00:36:03.175Z,100.00
2024-02-24T00:39:07.399Z,100.00
2024-02-24T00:42:12.453Z,100.00
2024-02-24T00:45:19.950Z,100.00
2024-02-24T00:48:24.294Z,100.00
2024-02-24T00:51:27.571Z,100.00
2024-02-24T00:54:36.054Z,100.00
2024-02-24T00:57:48.956Z,100.00
2024-02-24T01:00:54.690Z,100.00
2024-02-24T01:03:59.445Z,100.00
2024-02-24T01:07:03.358Z,100.00
2024-02-24T01:10:06.601Z,100.00
2024-02-24T01:13:10.593Z,100.00
2024-02-24T01:16:14.844Z,100.00
2024-02-24T01:19:28.822Z,100.00
2024-02-24T01:22:35.565Z,100.00
2024-02-24T01:25:53.704Z,100.00
2024-02-24T01:29:19.574Z,100.00
2024-02-24T01:32:28.056Z,100.00
2024-02-24T01:35:56.546Z,100.00
2024-02-24T01:39:15.632Z,100.00
2024-02-24T01:42:22.018Z,100.00
2024-02-24T01:45:24.969Z,100.00
2024-02-24T01:48:27.620Z,100.00
2024-02-24T01:51:32.552Z,100.00
2024-02-24T01:54:37.681Z,100.00
2024-02-24T01:57:43.654Z,100.00
2024-02-24T02:00:50.448Z,100.00
2024-02-24T02:03:56.962Z,100.00
2024-02-24T02:07:30.262Z,100.00
2024-02-24T02:10:48.783Z,100.00
2024-02-24T02:13:52.172Z,100.00
2024-02-24T02:16:59.202Z,100.00
2024-02-24T02:20:05.702Z,100.00
2024-02-24T02:23:15.572Z,100.00
2024-02-24T02:26:20.806Z,100.00
2024-02-24T02:29:24.187Z,100.00
2024-02-24T02:32:33.725Z,100.00
2024-02-24T02:35:36.978Z,100.00
2024-02-24T02:38:45.244Z,100.00
2024-02-24T02:42:00.819Z,100.00
2024-02-24T02:45:10.971Z,100.00
2024-02-24T02:48:23.530Z,100.00
2024-02-24T02:54:40.105Z,100.00
2024-02-24T02:57:43.218Z,100.00
2024-02-24T03:00:58.571Z,100.00
2024-02-24T03:04:03.218Z,100.00
2024-02-24T03:07:11.507Z,100.00
2024-02-24T03:10:20.348Z,100.00
2024-02-24T03:13:27.267Z,100.00
2024-02-24T03:16:30.748Z,100.00
2024-02-24T03:19:35.241Z,100.00
2024-02-24T03:22:43.359Z,100.00
2024-02-24T03:25:52.518Z,100.00
2024-02-24T03:29:08.526Z,100.00
2024-02-24T03:32:12.352Z,100.00
2024-02-24T03:35:19.320Z,100.00
2024-02-24T03:38:28.291Z,100.00
2024-02-24T03:41:35.060Z,100.00
2024-02-24T03:44:38.595Z,100.00
2024-02-24T03:47:42.076Z,100.00
2024-02-24T03:50:46.134Z,100.00
2024-02-24T03:53:49.407Z,100.00
2024-02-24T03:56:55.359Z,100.00
2024-02-24T03:59:58.101Z,100.00
2024-02-24T04:03:04.856Z,100.00
2024-02-24T04:06:09.954Z,100.00
2024-02-24T04:09:13.100Z,100.00
2024-02-24T04:12:16.084Z,100.00
2024-02-24T04:15:22.020Z,100.00
2024-02-24T04:18:24.742Z,100.00
2024-02-24T04:21:27.943Z,100.00
2024-02-24T04:24:30.432Z,100.00
2024-02-24T04:27:32.770Z,100.00
2024-02-24T04:30:36.529Z,100.00
2024-02-24T04:33:39.332Z,100.00
2024-02-24T04:36:42.761Z,100.00
2024-02-24T04:39:45.157Z,100.00
2024-02-24T04:42:47.739Z,100.00
2024-02-24T04:45:50.413Z,100.00
2024-02-24T04:48:53.372Z,100.00
2024-02-24T04:51:56.055Z,100.00
2024-02-24T04:54:59.339Z,100.00
2024-02-24T04:58:01.876Z,100.00
2024-02-24T05:01:04.511Z,100.00
2024-02-24T05:04:07.207Z,100.00
2024-02-24T05:07:09.995Z,100.00
2024-02-24T05:10:12.763Z,100.00
2024-02-24T05:13:15.196Z,100.00
2024-02-24T05:16:18.135Z,100.00
2024-02-24T05:19:20.767Z,100.00
2024-02-24T05:22:23.533Z,100.00
2024-02-24T05:25:26.053Z,100.00
2024-02-24T05:28:29.520Z,100.00
2024-02-24T05:31:32.297Z,100.00
2024-02-24T05:34:34.748Z,100.00
2024-02-24T05:37:37.523Z,100.00
2024-02-24T05:40:39.732Z,100.00
2024-02-24T05:43:42.525Z,100.00
2024-02-24T05:46:44.869Z,100.00
2024-02-24T05:49:47.892Z,100.00
2024-02-24T05:52:51.713Z,100.00
2024-02-24T05:55:54.365Z,100.00
2024-02-24T05:58:57.096Z,100.00
2024-02-24T06:01:59.531Z,100.00
2024-02-24T06:05:01.801Z,100.00
2024-02-24T06:08:04.818Z,100.00
2024-02-24T06:11:09.045Z,100.00
2024-02-24T06:14:12.047Z,100.00
2024-02-24T06:17:15.147Z,100.00
2024-02-24T06:20:17.793Z,100.00
2024-02-24T06:23:20.779Z,100.00
2024-02-24T06:26:23.630Z,100.00
2024-02-24T06:29:26.894Z,100.00
2024-02-24T06:32:30.974Z,100.00
2024-02-24T06:35:34.115Z,100.00
2024-02-24T06:38:37.274Z,100.00
2024-02-24T06:41:40.258Z,100.00
2024-02-24T06:44:43.937Z,100.00
2024-02-24T06:47:46.976Z,100.00
2024-02-24T06:50:50.361Z,100.00
2024-02-24T06:53:57.855Z,100.00
2024-02-24T06:57:01.584Z,100.00
2024-02-24T07:00:04.300Z,100.00
2024-02-24T07:03:06.232Z,100.00
2024-02-24T07:06:09.228Z,100.00
2024-02-24T07:09:11.511Z,100.00
2024-02-24T07:12:14.570Z,100.00
2024-02-24T07:15:17.193Z,100.00
2024-02-24T07:18:20.663Z,100.00
2024-02-24T07:21:24.028Z,100.00
2024-02-24T07:24:26.992Z,100.00
2024-02-24T07:27:30.242Z,100.00
2024-02-24T07:30:33.282Z,100.00
2024-02-24T07:33:35.926Z,100.00
2024-02-24T07:36:43.252Z,100.00
2024-02-24T07:39:46.055Z,100.00
2024-02-24T07:42:52.440Z,100.00
2024-02-24T07:45:56.212Z,100.00
2024-02-24T07:49:08.147Z,100.00
2024-02-24T07:52:13.368Z,100.00
2024-02-24T07:55:16.760Z,100.00
2024-02-24T07:58:19.239Z,100.00
2024-02-24T08:01:22.501Z,100.00
2024-02-24T08:04:34.998Z,100.00
2024-02-24T08:11:14.746Z,100.00
2024-02-24T08:14:23.515Z,100.00
2024-02-24T08:17:27.021Z,100.00
2024-02-24T08:20:30.975Z,100.00
2024-02-24T08:23:35.978Z,100.00
2024-02-24T08:26:45.733Z,100.00
2024-02-24T08:30:04.126Z,100.00
2024-02-24T08:33:12.671Z,100.00
2024-02-24T08:36:28.563Z,100.00
2024-02-24T08:39:32.675Z,100.00
2024-02-24T08:42:36.176Z,100.00
2024-02-24T08:45:47.533Z,100.00
2024-02-24T08:48:51.331Z,100.00
2024-02-24T08:52:04.972Z,100.00
2024-02-24T08:55:10.658Z,100.00
2024-02-24T08:58:17.939Z,99.65
2024-02-24T09:01:21.084Z,93.71
2024-02-24T09:04:23.912Z,95.47
2024-02-24T09:07:35.955Z,97.70
2024-02-24T09:10:39.359Z,92.07
2024-02-24T09:13:42.623Z,90.42
2024-02-24T09:16:48.897Z,92.44
2024-02-24T09:19:57.919Z,95.20
2024-02-24T09:23:07.470Z,91.76
2024-02-24T09:26:19.916Z,89.68
2024-02-24T09:29:25.862Z,87.40
2024-02-24T09:32:30.126Z,89.26
2024-02-24T09:35:42.632Z,86.17
2024-02-24T09:38:45.599Z,88.91
2024-02-24T09:41:49.751Z,84.58
2024-02-24T09:45:04.050Z,83.38
2024-02-24T09:48:08.320Z,81.99
2024-02-24T09:51:10.740Z,79.51
2024-02-24T09:54:14.339Z,77.52
2024-02-24T09:57:24.192Z,81.54
2024-02-24T10:00:28.395Z,75.35
2024-02-24T10:03:33.523Z,80.10
2024-02-24T10:06:40.081Z,79.24
2024-02-24T10:09:43.250Z,80.26
2024-02-24T10:12:59.660Z,76.98
2024-02-24T10:16:15.011Z,79.30
2024-02-24T10:19:17.598Z,77.80
2024-02-24T10:22:20.688Z,77.82
2024-02-24T10:25:40.562Z,77.92
2024-02-24T10:28:44.688Z,77.86
2024-02-24T10:31:48.803Z,76.55
2024-02-24T10:34:54.626Z,78.86
2024-02-24T10:38:11.555Z,79.41
2024-02-24T10:41:27.964Z,78.91
2024-02-24T10:44:36.120Z,77.00
2024-02-24T10:47:39.709Z,75.97
2024-02-24T10:50:52.485Z,77.12
2024-02-24T10:53:57.163Z,72.89
2024-02-24T10:57:08.070Z,76.94
2024-02-24T11:00:30.269Z,76.34
2024-02-24T11:03:49.258Z,76.14
2024-02-24T11:06:59.078Z,73.63
2024-02-24T11:10:35.595Z,70.45
2024-02-24T11:13:52.315Z,72.60
2024-02-24T11:17:06.648Z,70.88
2024-02-24T11:20:09.525Z,70.29
2024-02-24T11:23:23.088Z,68.81
2024-02-24T11:26:28.797Z,69.19
2024-02-24T11:29:39.808Z,68.37
2024-02-24T11:32:42.148Z,66.95
2024-02-24T11:35:44.866Z,67.13
2024-02-24T11:38:53.955Z,64.92
2024-02-24T11:42:06.618Z,62.97
2024-02-24T11:45:15.545Z,62.81
2024-02-24T11:48:23.513Z,61.95
2024-02-24T11:51:32.691Z,59.69
2024-02-24T11:54:50.320Z,61.29
2024-02-24T11:57:53.121Z,58.53
2024-02-24T12:00:59.685Z,60.87
2024-02-24T12:04:03.665Z,58.93
2024-02-24T12:07:08.991Z,58.85
2024-02-24T12:10:27.217Z,60.57
2024-02-24T12:13:30.182Z,60.66
2024-02-24T12:16:35.816Z,63.00
2024-02-24T12:19:40.027Z,64.04
2024-02-24T12:22:43.796Z,63.04
2024-02-24T12:25:58.730Z,64.28
2024-02-24T12:29:01.576Z,65.53
2024-02-24T12:32:04.005Z,64.77
2024-02-24T12:35:13.758Z,66.89
2024-02-24T12:38:22.099Z,67.35
2024-02-24T12:41:24.770Z,68.37
2024-02-24T12:44:36.357Z,66.95
2024-02-24T12:47:39.822Z,69.05
2024-02-24T12:50:43.262Z,67.14
2024-02-24T12:53:46.907Z,67.92
2024-02-24T12:56:49.797Z,68.94
2024-02-24T12:59:53.696Z,68.30
2024-02-24T13:03:03.689Z,69.39
2024-02-24T13:06:12.028Z,70.38
2024-02-24T13:09:17.222Z,69.88
2024-02-24T13:12:20.163Z,69.33
2024-02-24T13:15:28.399Z,70.11
2024-02-24T13:18:35.539Z,71.76
2024-02-24T13:21:38.860Z,70.66
2024-02-24T13:24:43.708Z,71.13
2024-02-24T13:27:48.538Z,70.96
2024-02-24T13:30:51.213Z,70.56
2024-02-24T13:33:58.662Z,69.47
2024-02-24T13:37:01.503Z,68.87
2024-02-24T13:40:09.207Z,70.07
2024-02-24T13:43:13.767Z,69.78
2024-02-24T13:46:17.149Z,66.56
2024-02-24T13:49:23.935Z,69.24
2024-02-24T13:52:27.801Z,68.98
2024-02-24T13:55:30.072Z,68.05
2024-02-24T13:58:33.178Z,69.29
2024-02-24T14:01:41.820Z,72.77
2024-02-24T14:04:47.210Z,71.67
2024-02-24T14:07:50.145Z,73.81
2024-02-24T14:10:53.123Z,74.39
2024-02-24T14:13:55.849Z,71.58
2024-02-24T14:17:02.401Z,72.71
2024-02-24T14:20:19.938Z,70.86
2024-02-24T14:23:31.471Z,74.23
2024-02-24T14:26:34.649Z,73.59
2024-02-24T14:29:37.273Z,70.40
2024-02-24T14:32:39.686Z,73.94
2024-02-24T14:35:45.603Z,71.46
2024-02-24T14:38:54.786Z,72.33
2024-02-24T14:41:57.612Z,71.39
2024-02-24T14:45:01.388Z,71.52
2024-02-24T14:48:14.676Z,70.90
2024-02-24T14:51:18.837Z,74.30
2024-02-24T14:54:43.929Z,71.63
2024-02-24T14:57:56.889Z,73.08
2024-02-24T15:01:00.717Z,75.10
2024-02-24T15:04:20.425Z,74.59
2024-02-24T15:07:24.566Z,74.02
2024-02-24T15:10:28.584Z,74.79
2024-02-24T15:13:38.694Z,72.76
2024-02-24T15:16:50.545Z,73.47
2024-02-24T15:19:54.136Z,74.03
2024-02-24T15:23:11.867Z,74.23
2024-02-24T15:26:15.500Z,75.18
2024-02-24T15:29:25.451Z,73.93
2024-02-24T15:32:37.430Z,73.77
2024-02-24T15:35:59.058Z,74.92
2024-02-24T15:39:03.175Z,74.62
2024-02-24T15:42:11.637Z,76.62
2024-02-24T15:45:15.314Z,75.78
2024-02-24T15:48:18.691Z,74.76
2024-02-24T15:51:24.597Z,75.97
2024-02-24T15:54:31.771Z,77.81
2024-02-24T15:57:39.528Z,78.65
2024-02-24T16:00:58.080Z,79.76
2024-02-24T16:07:49.966Z,81.29
2024-02-24T16:11:01.499Z,82.22
2024-02-24T16:14:08.806Z,83.45
2024-02-24T16:17:12.287Z,84.02
2024-02-24T16:23:38.209Z,84.94
2024-02-24T16:26:41.694Z,86.42
2024-02-24T16:29:44.630Z,88.69
2024-02-24T16:32:48.983Z,88.55
2024-02-24T16:35:52.746Z,90.90
2024-02-24T16:38:57.617Z,91.45
2024-02-24T16:42:12.958Z,92.86
2024-02-24T16:45:16.335Z,92.46
2024-02-24T16:48:24.170Z,93.91
2024-02-24T16:52:19.144Z,94.42
2024-02-24T16:55:23.121Z,94.77
2024-02-24T16:58:27.711Z,94.82
2024-02-24T17:01:34.087Z,95.36
2024-02-24T17:04:39.561Z,95.95
2024-02-24T17:07:42.211Z,95.97
2024-02-24T17:10:50.785Z,95.54
2024-02-24T17:14:00.074Z,95.50
2024-02-24T17:21:28.755Z,96.43
2024-02-24T17:24:33.520Z,96.81
2024-02-24T17:27:41.551Z,97.13
2024-02-24T17:31:11.573Z,97.66
2024-02-24T17:38:05.699Z,97.93
2024-02-24T17:41:15.044Z,99.74
2024-02-24T17:44:19.974Z,100.00
2024-02-24T17:47:37.020Z,100.00
2024-02-24T17:50:50.772Z,100.00
2024-02-24T17:54:10.744Z,100.00
2024-02-24T17:57:21.383Z,100.00
2024-02-24T18:00:29.189Z,100.00
2024-02-24T18:03:38.935Z,100.00
2024-02-24T18:07:04.487Z,100.00
2024-02-24T18:10:14.939Z,100.00
2024-02-24T18:13:17.913Z,100.00
2024-02-24T18:16:25.164Z,100.00
2024-02-24T18:19:28.352Z,100.00
2024-02-24T18:22:44.856Z,100.00
2024-02-24T18:25:50.159Z,100.00
2024-02-24T18:29:18.455Z,100.00
2024-02-24T18:32:42.062Z,100.00
2024-02-24T18:35:54.162Z,100.00
2024-02-24T18:38:56.892Z,100.00
2024-02-24T18:42:21.160Z,100.00
2024-02-24T18:48:57.721Z,100.00
2024-02-24T18:52:10.305Z,100.00
2024-02-24T18:55:15.860Z,100.00
2024-02-24T18:58:54.033Z,100.00
2024-02-24T19:01:57.693Z,100.00
2024-02-24T19:05:09.921Z,100.00
2024-02-24T19:08:23.631Z,100.00
2024-02-24T19:11:52.450Z,100.00
2024-02-24T19:14:58.615Z,100.00
2024-02-24T19:18:35.122Z,100.00
2024-02-24T19:21:55.467Z,100.00
2024-02-24T19:24:58.745Z,100.00
2024-02-24T19:31:31.243Z,100.00
2024-02-24T19:34:34.018Z,100.00
2024-02-24T19:37:37.619Z,100.00
2024-02-24T19:40:45.061Z,100.00
2024-02-24T19:43:52.769Z,100.00
2024-02-24T19:47:04.306Z,100.00
2024-02-24T19:50:07.193Z,100.00
2024-02-24T19:56:31.898Z,100.00
2024-02-24T19:59:43.356Z,100.00
2024-02-24T20:03:10.812Z,100.00
2024-02-24T20:06:13.562Z,100.00
2024-02-24T20:09:18.380Z,100.00
2024-02-24T20:12:32.180Z,100.00
2024-02-24T20:15:35.336Z,100.00
2024-02-24T20:18:39.501Z,100.00
2024-02-24T20:21:42.351Z,100.00
2024-02-24T20:24:50.195Z,100.00
2024-02-24T20:28:10.218Z,100.00
2024-02-24T20:31:14.545Z,100.00
2024-02-24T20:34:17.648Z,100.00
2024-02-24T20:37:19.971Z,100.00
2024-02-24T20:40:48.434Z,100.00
2024-02-24T20:44:02.441Z,100.00
2024-02-24T20:47:05.700Z,100.00
2024-02-24T20:50:13.687Z,100.00
2024-02-24T20:53:17.516Z,100.00
2024-02-24T20:56:22.751Z,100.00
2024-02-24T20:59:33.577Z,100.00
2024-02-24T21:02:46.258Z,100.00
2024-02-24T21:05:58.533Z,100.00
2024-02-24T21:09:02.119Z,100.00
2024-02-24T21:12:38.228Z,100.00
2024-02-24T21:15:41.855Z,100.00
2024-02-24T21:18:44.957Z,100.00
2024-02-24T21:22:29.555Z,100.00
2024-02-24T21:25:33.262Z,100.00
2024-02-24T21:28:55.319Z,100.00
2024-02-24T21:32:02.828Z,100.00
2024-02-24T21:35:07.064Z,100.00
2024-02-24T21:38:18.316Z,100.00
2024-02-24T21:41:24.894Z,100.00
2024-02-24T21:44:29.738Z,100.00
2024-02-24T21:47:32.753Z,100.00
2024-02-24T21:50:49.071Z,100.00
2024-02-24T21:53:51.955Z,100.00
2024-02-24T21:56:55.952Z,100.00
2024-02-24T21:59:59.182Z,100.00
2024-02-24T22:03:18.743Z,100.00
2024-02-24T22:06:22.190Z,100.00
2024-02-24T22:16:43.063Z,100.00
2024-02-24T22:19:47.113Z,100.00
2024-02-24T22:22:49.990Z,100.00
2024-02-24T22:26:35.303Z,100.00
2024-02-24T22:29:45.168Z,100.00
2024-02-24T22:32:57.036Z,100.00
2024-02-24T22:36:26.892Z,100.00
2024-02-24T22:39:38.332Z,100.00
2024-02-24T22:42:47.461Z,100.00
2024-02-24T22:45:50.091Z,100.00
2024-02-24T22:49:03.413Z,100.00
2024-02-24T22:52:07.982Z,100.00
2024-02-24T22:55:16.179Z,100.00
2024-02-24T22:58:26.239Z,100.00
2024-02-24T23:01:42.344Z,100.00
2024-02-24T23:04:46.181Z,100.00
2024-02-24T23:07:48.794Z,100.00
